createdAt,value
2023-04-08T00:02:21.357Z,4.24
2023-04-08T00:04:48.907Z,4.21
2023-04-08T00:07:16.396Z,4.24
2023-04-08T00:09:43.873Z,4.26
2023-04-08T00:12:11.425Z,4.27
2023-04-08T00:14:38.941Z,4.32
2023-04-08T00:17:06.513Z,4.33
2023-04-08T00:19:36.240Z,4.40
2023-04-08T00:22:03.896Z,4.40
2023-04-08T00:24:31.465Z,4.44
2023-04-08T00:26:58.829Z,4.47
2023-04-08T00:29:26.395Z,4.47
2023-04-08T00:31:54.290Z,4.53
2023-04-08T00:34:22.036Z,4.54
2023-04-08T00:36:49.443Z,4.60
2023-04-08T00:39:16.932Z,4.60
2023-04-08T00:41:44.498Z,4.61
2023-04-08T00:44:11.939Z,4.65
2023-04-08T00:46:40.698Z,4.68
2023-04-08T00:49:08.205Z,4.62
2023-04-08T00:51:39.117Z,4.58
2023-04-08T00:54:07.425Z,4.62
2023-04-08T00:56:36.661Z,4.60
2023-04-08T00:59:05.293Z,4.61
2023-04-08T01:02:09.854Z,4.60
2023-04-08T01:05:03.383Z,4.60
2023-04-08T01:07:48.976Z,4.58
2023-04-08T01:10:22.726Z,4.58
2023-04-08T01:13:12.759Z,4.60
2023-04-08T01:15:44.173Z,4.56
2023-04-08T01:18:15.720Z,4.56
2023-04-08T01:20:44.623Z,4.54
2023-04-08T01:24:05.110Z,4.54
2023-04-08T01:26:33.397Z,4.57
2023-04-08T01:29:03.148Z,4.56
2023-04-08T01:31:32.393Z,4.58
2023-04-08T01:34:04.623Z,4.58
2023-04-08T01:36:33.310Z,4.56
2023-04-08T01:39:04.076Z,4.53
2023-04-08T01:41:36.102Z,4.50
2023-04-08T01:44:04.968Z,4.47
2023-04-08T01:46:33.955Z,4.46
2023-04-08T01:49:05.924Z,4.38
2023-04-08T01:51:37.735Z,4.41
2023-04-08T01:54:06.348Z,4.43
2023-04-08T01:56:39.463Z,4.46
2023-04-08T01:59:14.147Z,4.50
2023-04-08T02:01:45.560Z,4.51
2023-04-08T02:04:13.909Z,4.43
2023-04-08T02:06:41.517Z,4.41
2023-04-08T02:09:09.126Z,4.38
2023-04-08T02:11:37.756Z,4.32
2023-04-08T02:14:05.772Z,4.30
2023-04-08T02:16:42.691Z,4.32
2023-04-08T02:19:29.729Z,4.33
2023-04-08T02:22:18.753Z,4.38
2023-04-08T02:24:47.381Z,4.41
2023-04-08T02:27:17.106Z,4.46
2023-04-08T02:29:47.276Z,4.50
2023-04-08T02:32:17.196Z,4.51
2023-04-08T02:34:48.152Z,4.51
2023-04-08T02:37:15.874Z,4.54
2023-04-08T02:39:43.374Z,4.57
2023-04-08T02:42:12.119Z,4.56
2023-04-08T02:44:39.572Z,4.48
2023-04-08T02:47:06.977Z,4.37
2023-04-08T02:49:35.858Z,4.29
2023-04-08T02:52:03.360Z,4.33
2023-04-08T02:54:31.122Z,4.38
2023-04-08T02:56:59.767Z,4.41
2023-04-08T02:59:27.150Z,4.41
2023-04-08T03:01:54.644Z,4.46
2023-04-08T03:04:22.095Z,4.48
2023-04-08T03:06:49.547Z,4.48
2023-04-08T03:09:17.172Z,4.48
2023-04-08T03:11:44.993Z,4.53
2023-04-08T03:14:12.402Z,4.50
2023-04-08T03:16:39.875Z,4.47
2023-04-08T03:19:07.237Z,4.54
2023-04-08T03:21:34.676Z,4.58
2023-04-08T03:24:02.074Z,4.62
2023-04-08T03:26:29.532Z,4.64
2023-04-08T03:28:56.998Z,4.68
2023-04-08T03:31:24.489Z,4.68
2023-04-08T03:33:52.063Z,4.69
2023-04-08T03:36:19.709Z,4.67
2023-04-08T03:38:47.410Z,4.67
2023-04-08T03:41:14.926Z,4.64
2023-04-08T03:43:42.417Z,4.62
2023-04-08T03:46:09.883Z,4.68
2023-04-08T03:48:37.409Z,4.69
2023-04-08T03:51:04.950Z,4.65
2023-04-08T03:53:32.444Z,4.58
2023-04-08T03:55:59.996Z,4.51
2023-04-08T03:58:27.410Z,4.48
2023-04-08T04:00:54.780Z,4.46
2023-04-08T04:03:22.970Z,4.44
2023-04-08T04:05:51.107Z,4.41
2023-04-08T04:08:18.790Z,4.41
2023-04-08T04:10:46.240Z,4.40
2023-04-08T04:13:13.773Z,4.44
2023-04-08T04:15:41.593Z,4.51
2023-04-08T04:18:09.311Z,4.51
2023-04-08T04:20:42.043Z,4.51
2023-04-08T04:23:10.099Z,4.48
2023-04-08T04:25:39.493Z,4.43
2023-04-08T04:28:07.975Z,4.43
2023-04-08T04:30:37.665Z,4.40
2023-04-08T04:33:06.505Z,4.38
2023-04-08T04:35:34.578Z,4.40
2023-04-08T04:38:02.130Z,4.40
2023-04-08T04:40:29.542Z,4.40
2023-04-08T04:42:56.992Z,4.41
2023-04-08T04:45:24.309Z,4.44
2023-04-08T04:47:51.735Z,4.46
2023-04-08T04:50:19.128Z,4.50
2023-04-08T04:52:46.572Z,4.47
2023-04-08T04:55:15.828Z,4.51
2023-04-08T04:57:44.493Z,4.50
2023-04-08T05:00:12.270Z,4.54
2023-04-08T05:02:39.568Z,4.58
2023-04-08T05:05:07.266Z,4.57
2023-04-08T05:07:38.204Z,4.62
2023-04-08T05:10:06.223Z,4.65
2023-04-08T05:12:33.538Z,4.68
2023-04-08T05:15:00.930Z,4.71
2023-04-08T05:17:28.241Z,4.77
2023-04-08T05:19:55.537Z,4.85
2023-04-08T05:22:22.742Z,4.95
2023-04-08T05:24:49.950Z,5.00
2023-04-08T05:27:17.373Z,5.02
2023-04-08T05:29:44.592Z,5.09
2023-04-08T05:32:11.765Z,5.12
2023-04-08T05:34:39.048Z,5.22
2023-04-08T05:37:06.574Z,5.34
2023-04-08T05:39:33.763Z,5.46
2023-04-08T05:42:00.971Z,5.64
2023-04-08T05:44:28.244Z,5.74
2023-04-08T05:46:55.996Z,5.77
2023-04-08T05:49:23.268Z,5.81
2023-04-08T05:51:50.506Z,5.84
2023-04-08T05:54:17.678Z,5.97
2023-04-08T05:56:46.425Z,6.03
2023-04-08T05:59:13.724Z,6.08
2023-04-08T06:01:40.958Z,6.15
2023-04-08T06:04:08.331Z,6.23
2023-04-08T06:06:38.079Z,6.33
2023-04-08T06:09:05.893Z,6.43
2023-04-08T06:11:33.090Z,6.57
2023-04-08T06:14:00.235Z,6.60
2023-04-08T06:16:27.692Z,6.74
2023-04-08T06:18:55.095Z,6.83
2023-04-08T06:21:22.412Z,6.92
2023-04-08T06:23:49.580Z,6.98
2023-04-08T06:26:17.043Z,7.20
2023-04-08T06:28:44.373Z,7.42
2023-04-08T06:31:12.041Z,7.45
2023-04-08T06:33:39.346Z,7.60
2023-04-08T06:36:08.031Z,7.67
2023-04-08T06:38:35.773Z,7.83
2023-04-08T06:41:06.861Z,8.07
2023-04-08T06:43:37.924Z,8.25
2023-04-08T06:46:05.389Z,8.32
2023-04-08T06:48:32.624Z,8.56
2023-04-08T06:51:01.311Z,8.69
2023-04-08T06:53:32.812Z,8.73
2023-04-08T06:56:00.534Z,8.81
2023-04-08T06:58:27.741Z,8.97
2023-04-08T07:00:56.262Z,9.03
2023-04-08T07:03:24.038Z,9.27
2023-04-08T07:05:51.428Z,9.45
2023-04-08T07:08:19.122Z,9.65
2023-04-08T07:10:46.361Z,10.07
2023-04-08T07:13:13.961Z,10.13
2023-04-08T07:15:41.666Z,10.13
2023-04-08T07:18:08.954Z,10.30
2023-04-08T07:20:38.515Z,10.35
2023-04-08T07:23:05.942Z,10.76
2023-04-08T07:25:35.235Z,11.04
2023-04-08T07:28:02.498Z,11.17
2023-04-08T07:30:29.712Z,11.44
2023-04-08T07:32:59.317Z,11.85
2023-04-08T07:35:28.314Z,11.96
2023-04-08T07:37:55.786Z,12.30
2023-04-08T07:40:23.169Z,11.92
2023-04-08T07:42:50.363Z,12.63
2023-04-08T07:45:17.835Z,12.77
2023-04-08T07:47:45.101Z,12.50
2023-04-08T07:50:12.486Z,12.51
2023-04-08T07:52:39.781Z,12.37
2023-04-08T07:55:07.705Z,12.02
2023-04-08T07:57:35.116Z,12.13
2023-04-08T08:00:03.713Z,12.60
2023-04-08T08:02:40.628Z,12.75
2023-04-08T08:05:08.379Z,12.65
2023-04-08T08:07:35.691Z,12.00
2023-04-08T08:10:02.974Z,12.73
2023-04-08T08:12:30.425Z,12.83
2023-04-08T08:14:59.156Z,12.74
2023-04-08T08:17:27.694Z,12.68
2023-04-08T08:19:55.425Z,12.56
2023-04-08T08:22:22.885Z,12.46
2023-04-08T08:24:50.086Z,12.71
2023-04-08T08:27:17.348Z,13.33
2023-04-08T08:29:44.597Z,13.22
2023-04-08T08:32:12.455Z,12.92
2023-04-08T08:34:39.606Z,13.20
2023-04-08T08:37:06.878Z,13.61
2023-04-08T08:39:34.164Z,13.97
2023-04-08T08:42:01.385Z,14.05
2023-04-08T08:44:30.663Z,14.17
2023-04-08T08:46:57.983Z,14.57
2023-04-08T08:49:25.443Z,14.94
2023-04-08T08:51:54.878Z,15.03
2023-04-08T08:54:22.319Z,15.15
2023-04-08T08:56:49.568Z,15.45
2023-04-08T08:59:16.821Z,16.01
2023-04-08T09:01:44.251Z,16.21
2023-04-08T09:04:18.447Z,16.38
2023-04-08T09:07:07.732Z,16.58
2023-04-08T09:09:49.329Z,16.54
2023-04-08T09:12:18.026Z,16.72
2023-04-08T09:14:45.533Z,16.55
2023-04-08T09:17:12.791Z,16.93
2023-04-08T09:19:40.364Z,16.86
2023-04-08T09:22:08.951Z,16.73
2023-04-08T09:24:37.544Z,16.48
2023-04-08T09:27:05.902Z,16.41
2023-04-08T09:29:37.377Z,16.09
2023-04-08T09:32:06.809Z,15.52
2023-04-08T09:34:34.583Z,15.18
2023-04-08T09:37:02.310Z,15.01
2023-04-08T09:39:30.678Z,14.19
2023-04-08T09:42:01.493Z,13.91
2023-04-08T09:44:30.637Z,13.57
2023-04-08T09:47:20.329Z,13.66
2023-04-08T09:49:53.886Z,13.60
2023-04-08T09:52:46.751Z,13.11
2023-04-08T09:55:14.779Z,12.53
2023-04-08T09:58:03.984Z,12.29
2023-04-08T10:00:44.069Z,12.08
2023-04-08T10:03:19.228Z,12.13
2023-04-08T10:05:47.344Z,12.37
2023-04-08T10:08:15.495Z,12.64
2023-04-08T10:10:43.426Z,13.29
2023-04-08T10:13:11.051Z,13.66
2023-04-08T10:15:40.841Z,13.91
2023-04-08T10:18:11.227Z,14.08
2023-04-08T10:20:38.674Z,14.22
2023-04-08T10:23:09.708Z,13.94
2023-04-08T10:25:41.698Z,13.74
2023-04-08T10:28:11.934Z,13.38
2023-04-08T10:30:40.395Z,13.18
2023-04-08T10:33:13.449Z,12.84
2023-04-08T10:35:48.926Z,12.81
2023-04-08T10:38:17.751Z,13.11
2023-04-08T10:40:45.981Z,13.35
2023-04-08T10:43:14.352Z,13.54
2023-04-08T10:45:43.131Z,13.43
2023-04-08T10:48:14.153Z,13.52
2023-04-08T10:50:41.911Z,13.66
2023-04-08T10:53:11.218Z,13.57
2023-04-08T10:55:38.697Z,13.35
2023-04-08T10:58:10.313Z,12.83
2023-04-08T11:00:39.711Z,12.58
2023-04-08T11:03:09.231Z,12.38
2023-04-08T11:05:38.186Z,11.98
2023-04-08T11:08:06.419Z,11.67
2023-04-08T11:10:41.337Z,11.09
2023-04-08T11:13:09.976Z,11.00
2023-04-08T11:15:37.795Z,10.86
2023-04-08T11:18:05.681Z,10.95
2023-04-08T11:20:37.136Z,10.99
2023-04-08T11:23:04.321Z,11.00
2023-04-08T11:25:31.999Z,11.06
2023-04-08T11:28:00.432Z,11.37
2023-04-08T11:30:28.991Z,12.05
2023-04-08T11:32:57.015Z,12.92
2023-04-08T11:35:24.480Z,13.88
2023-04-08T11:37:52.386Z,14.38
2023-04-08T11:40:22.207Z,14.53
2023-04-08T11:42:50.228Z,14.60
2023-04-08T11:45:19.954Z,14.57
2023-04-08T11:47:48.459Z,14.45
2023-04-08T11:50:25.845Z,13.88
2023-04-08T11:52:53.574Z,13.40
2023-04-08T11:55:28.716Z,13.13
2023-04-08T11:57:57.423Z,12.94
2023-04-08T12:00:24.617Z,12.74
2023-04-08T12:02:52.739Z,12.80
2023-04-08T12:05:20.505Z,13.02
2023-04-08T12:07:48.212Z,13.23
2023-04-08T12:10:15.544Z,13.54
2023-04-08T12:12:42.835Z,13.60
2023-04-08T12:15:10.838Z,13.23
2023-04-08T12:17:41.178Z,12.34
2023-04-08T12:20:08.972Z,12.15
2023-04-08T12:22:36.793Z,11.99
2023-04-08T12:25:04.407Z,11.83
2023-04-08T12:27:33.544Z,11.67
2023-04-08T12:30:01.560Z,11.33
2023-04-08T12:32:28.995Z,11.12
2023-04-08T12:34:56.261Z,10.86
2023-04-08T12:37:23.755Z,10.59
2023-04-08T12:39:51.604Z,10.17
2023-04-08T12:42:18.788Z,9.91
2023-04-08T12:44:46.453Z,9.89
2023-04-08T12:47:13.654Z,9.89
2023-04-08T12:52:11.206Z,9.97
2023-04-08T12:54:38.413Z,9.96
2023-04-08T12:57:05.792Z,9.99
2023-04-08T12:59:33.556Z,9.97
2023-04-08T13:02:00.898Z,9.91
2023-04-08T13:04:28.182Z,9.93
2023-04-08T13:06:55.721Z,9.83
2023-04-08T13:09:23.005Z,9.69
2023-04-08T13:11:50.361Z,9.62
2023-04-08T13:14:18.290Z,9.69
2023-04-08T13:16:46.317Z,9.72
2023-04-08T13:19:13.636Z,9.75
2023-04-08T13:21:41.075Z,9.68
2023-04-08T13:24:08.260Z,9.69
2023-04-08T13:26:35.485Z,9.70
2023-04-08T13:29:02.885Z,9.83
2023-04-08T13:31:30.379Z,9.90
2023-04-08T13:33:58.321Z,10.20
2023-04-08T13:36:26.848Z,10.59
2023-04-08T13:38:54.750Z,10.88
2023-04-08T13:41:22.081Z,11.19
2023-04-08T13:43:50.503Z,11.60
2023-04-08T13:46:18.503Z,12.09
2023-04-08T13:48:46.380Z,12.10
2023-04-08T13:51:13.987Z,12.63
2023-04-08T13:53:41.228Z,13.06
2023-04-08T13:56:08.615Z,13.69
2023-04-08T13:58:35.806Z,14.18
2023-04-08T14:01:03.252Z,14.83
2023-04-08T14:03:30.524Z,14.97
2023-04-08T14:06:01.120Z,14.05
2023-04-08T14:08:28.941Z,13.49
2023-04-08T14:10:57.486Z,13.85
2023-04-08T14:13:24.697Z,14.25
2023-04-08T14:15:53.774Z,14.48
2023-04-08T14:18:21.406Z,13.98
2023-04-08T14:20:48.554Z,13.78
2023-04-08T14:23:17.040Z,13.63
2023-04-08T14:25:44.403Z,13.50
2023-04-08T14:28:11.621Z,13.30
2023-04-08T14:30:38.882Z,13.06
2023-04-08T14:33:06.457Z,12.95
2023-04-08T14:35:33.866Z,12.60
2023-04-08T14:38:01.545Z,12.54
2023-04-08T14:40:28.953Z,12.12
2023-04-08T14:42:56.432Z,12.32
2023-04-08T14:45:23.840Z,12.54
2023-04-08T14:47:51.139Z,12.87
2023-04-08T14:50:18.914Z,13.26
2023-04-08T14:52:48.548Z,13.54
2023-04-08T14:55:16.768Z,13.77
2023-04-08T14:57:43.970Z,14.04
2023-04-08T15:00:11.808Z,13.71
2023-04-08T15:02:39.231Z,13.36
2023-04-08T15:05:07.145Z,13.12
2023-04-08T15:07:34.642Z,12.80
2023-04-08T15:10:02.052Z,12.54
2023-04-08T15:12:29.530Z,12.15
2023-04-08T15:14:56.782Z,11.99
2023-04-08T15:17:24.714Z,12.16
2023-04-08T15:19:52.386Z,12.34
2023-04-08T15:22:19.821Z,12.46
2023-04-08T15:24:48.063Z,12.30
2023-04-08T15:27:16.073Z,12.17
2023-04-08T15:29:43.292Z,12.15
2023-04-08T15:32:10.910Z,12.03
2023-04-08T15:34:38.122Z,12.26
2023-04-08T15:37:06.441Z,12.20
2023-04-08T15:39:33.672Z,11.93
2023-04-08T15:42:01.518Z,11.81
2023-04-08T15:44:32.304Z,11.86
2023-04-08T15:46:59.623Z,11.75
2023-04-08T15:49:26.879Z,11.64
2023-04-08T15:51:54.122Z,11.60
2023-04-08T15:54:21.461Z,11.58
2023-04-08T15:56:48.646Z,11.60
2023-04-08T15:59:15.992Z,11.65
2023-04-08T16:01:43.362Z,11.52
2023-04-08T16:04:11.233Z,11.44
2023-04-08T16:06:38.496Z,11.50
2023-04-08T16:09:06.466Z,11.45
2023-04-08T16:11:34.204Z,11.38
2023-04-08T16:14:01.947Z,11.24
2023-04-08T16:16:29.823Z,10.99
2023-04-08T16:18:57.018Z,10.88
2023-04-08T16:21:24.266Z,10.66
2023-04-08T16:23:51.718Z,10.38
2023-04-08T16:26:19.872Z,10.11
2023-04-08T16:28:47.229Z,9.97
2023-04-08T16:31:14.453Z,9.79
2023-04-08T16:33:41.825Z,9.60
2023-04-08T16:36:09.347Z,9.52
2023-04-08T16:38:36.697Z,9.49
2023-04-08T16:41:06.292Z,9.45
2023-04-08T16:43:33.649Z,9.42
2023-04-08T16:46:10.684Z,9.39
2023-04-08T16:48:39.192Z,9.38
2023-04-08T16:51:06.896Z,9.38
2023-04-08T16:53:34.162Z,9.32
2023-04-08T16:56:02.295Z,9.27
2023-04-08T16:58:29.657Z,9.17
2023-04-08T17:00:56.872Z,9.03
2023-04-08T17:03:24.216Z,8.87
2023-04-08T17:05:51.845Z,8.64
2023-04-08T17:08:19.333Z,8.46
2023-04-08T17:10:48.597Z,8.28
2023-04-08T17:13:16.023Z,8.05
2023-04-08T17:15:43.441Z,7.87
2023-04-08T17:18:10.599Z,7.67
2023-04-08T17:20:38.300Z,7.52
2023-04-08T17:23:05.874Z,7.30
2023-04-08T17:25:33.080Z,7.19
2023-04-08T17:28:00.290Z,7.01
2023-04-08T17:30:27.576Z,6.91
2023-04-08T17:32:54.735Z,6.78
2023-04-08T17:35:22.156Z,6.71
2023-04-08T17:37:50.280Z,6.67
2023-04-08T17:40:17.740Z,6.63
2023-04-08T17:42:44.943Z,6.60
2023-04-08T17:45:12.290Z,6.63
2023-04-08T17:47:39.595Z,6.63
2023-04-08T17:50:08.305Z,6.58
2023-04-08T17:52:36.646Z,6.61
2023-04-08T17:55:04.138Z,6.60
2023-04-08T17:57:31.344Z,6.60
2023-04-08T17:59:58.518Z,6.69
2023-04-08T18:02:27.519Z,6.77
2023-04-08T18:04:55.883Z,6.85
2023-04-08T18:07:23.102Z,6.92
2023-04-08T18:09:50.384Z,6.98
2023-04-08T18:12:17.678Z,7.04
2023-04-08T18:14:44.932Z,7.09
2023-04-08T18:17:12.361Z,7.15
2023-04-08T18:19:39.565Z,7.18
2023-04-08T18:22:06.779Z,7.18
2023-04-08T18:24:34.140Z,7.15
2023-04-08T18:27:04.785Z,7.12
2023-04-08T18:29:32.299Z,7.07
2023-04-08T18:31:59.573Z,7.01
2023-04-08T18:34:27.094Z,6.97
2023-04-08T18:36:54.316Z,6.92
2023-04-08T18:39:21.473Z,6.84
2023-04-08T18:41:48.734Z,6.76
2023-04-08T18:44:15.918Z,6.66
2023-04-08T18:46:43.290Z,6.57
2023-04-08T18:49:10.587Z,6.51
2023-04-08T18:51:38.145Z,6.40
2023-04-08T18:54:06.442Z,6.34
2023-04-08T18:56:34.917Z,6.29
2023-04-08T18:59:03.638Z,6.16
2023-04-08T19:01:32.643Z,6.11
2023-04-08T19:04:10.717Z,6.03
2023-04-08T19:06:39.688Z,5.97
2023-04-08T19:09:07.428Z,5.92
2023-04-08T19:11:34.610Z,5.87
2023-04-08T19:14:01.835Z,5.81
2023-04-08T19:16:29.087Z,5.74
2023-04-08T19:18:57.162Z,5.71
2023-04-08T19:21:24.417Z,5.65
2023-04-08T19:23:51.954Z,5.58
2023-04-08T19:26:19.457Z,5.51
2023-04-08T19:28:47.175Z,5.44
2023-04-08T19:31:18.377Z,5.36
2023-04-08T19:33:45.928Z,5.29
2023-04-08T19:36:13.301Z,5.19
2023-04-08T19:38:40.627Z,5.08
2023-04-08T19:41:07.865Z,4.96
2023-04-08T19:43:35.481Z,4.91
2023-04-08T19:46:03.645Z,4.84
2023-04-08T19:48:32.594Z,4.77
2023-04-08T19:51:00.059Z,4.68
2023-04-08T19:53:27.317Z,4.65
2023-04-08T19:56:03.391Z,4.57
2023-04-08T19:58:30.590Z,4.47
2023-04-08T20:00:57.930Z,4.43
2023-04-08T20:03:25.960Z,4.37
2023-04-08T20:05:53.288Z,4.30
2023-04-08T20:08:20.583Z,4.29
2023-04-08T20:10:49.538Z,4.33
2023-04-08T20:13:16.888Z,4.38
2023-04-08T20:15:45.210Z,4.43
2023-04-08T20:18:12.585Z,4.53
2023-04-08T20:20:40.095Z,4.53
2023-04-08T20:23:07.257Z,4.53
2023-04-08T20:25:34.507Z,4.51
2023-04-08T20:28:01.675Z,4.57
2023-04-08T20:30:29.005Z,4.60
2023-04-08T20:32:56.361Z,4.58
2023-04-08T20:35:23.552Z,4.56
2023-04-08T20:37:51.178Z,4.54
2023-04-08T20:40:18.561Z,4.53
2023-04-08T20:42:46.201Z,4.53
2023-04-08T20:45:13.476Z,4.48
2023-04-08T20:47:40.734Z,4.48
2023-04-08T20:50:09.052Z,4.46
2023-04-08T20:52:36.230Z,4.46
2023-04-08T20:55:03.485Z,4.47
2023-04-08T20:57:30.817Z,4.51
2023-04-08T20:59:58.170Z,4.53
2023-04-08T21:02:25.605Z,4.57
2023-04-08T21:04:52.844Z,4.48
2023-04-08T21:07:20.372Z,4.47
2023-04-08T21:09:48.552Z,4.41
2023-04-08T21:12:15.947Z,4.38
2023-04-08T21:14:45.313Z,4.43
2023-04-08T21:17:12.725Z,4.40
2023-04-08T21:19:39.947Z,4.41
2023-04-08T21:22:07.254Z,4.43
2023-04-08T21:24:34.430Z,4.40
2023-04-08T21:27:01.690Z,4.38
2023-04-08T21:29:30.406Z,4.34
2023-04-08T21:31:57.758Z,4.30
2023-04-08T21:34:25.034Z,4.27
2023-04-08T21:36:52.253Z,4.30
2023-04-08T21:39:19.819Z,4.34
2023-04-08T21:41:48.030Z,4.38
2023-04-08T21:44:15.605Z,4.43
2023-04-08T21:46:42.953Z,4.46
2023-04-08T21:49:11.261Z,4.51
2023-04-08T21:51:39.247Z,4.48
2023-04-08T21:54:07.171Z,4.56
2023-04-08T21:56:34.454Z,4.57
2023-04-08T21:59:01.678Z,4.62
2023-04-08T22:01:29.104Z,4.61
2023-04-08T22:03:56.863Z,4.64
2023-04-08T22:06:31.992Z,4.65
2023-04-08T22:09:00.024Z,4.67
2023-04-08T22:11:27.457Z,4.67
2023-04-08T22:13:54.680Z,4.71
2023-04-08T22:16:21.925Z,4.71
2023-04-08T22:18:49.185Z,4.77
2023-04-08T22:21:16.878Z,4.79
2023-04-08T22:23:44.124Z,4.78
2023-04-08T22:26:11.303Z,4.78
2023-04-08T22:28:38.515Z,4.75
2023-04-08T22:31:10.973Z,4.72
2023-04-08T22:33:39.106Z,4.67
2023-04-08T22:36:06.597Z,4.65
2023-04-08T22:38:33.859Z,4.64
2023-04-08T22:41:01.338Z,4.62
2023-04-08T22:43:28.722Z,4.60
2023-04-08T22:45:56.089Z,4.54
2023-04-08T22:48:23.303Z,4.46
2023-04-08T22:50:51.406Z,4.32
2023-04-08T22:53:18.685Z,4.14
2023-04-08T22:55:46.029Z,3.92
2023-04-08T22:58:13.270Z,3.69
2023-04-08T23:00:40.726Z,3.50
2023-04-08T23:03:07.963Z,3.34
2023-04-08T23:05:35.188Z,3.19
2023-04-08T23:08:02.409Z,3.06
2023-04-08T23:10:29.712Z,2.96
2023-04-08T23:12:57.045Z,2.88
2023-04-08T23:15:24.201Z,2.86
2023-04-08T23:17:51.434Z,2.83
2023-04-08T23:20:18.666Z,2.86
2023-04-08T23:22:46.459Z,2.83
2023-04-08T23:25:13.929Z,2.82
2023-04-08T23:27:41.121Z,2.85
2023-04-08T23:30:08.825Z,2.83
2023-04-08T23:32:36.189Z,2.85
2023-04-08T23:35:03.599Z,2.85
2023-04-08T23:37:31.164Z,2.86
2023-04-08T23:39:58.393Z,2.88
2023-04-08T23:42:27.298Z,2.88
2023-04-08T23:44:54.961Z,2.91
2023-04-08T23:47:22.369Z,2.93
2023-04-08T23:49:49.678Z,3.00
2023-04-08T23:52:17.008Z,3.07
2023-04-08T23:54:44.210Z,3.17
2023-04-08T23:57:11.480Z,3.24
2023-04-08T23:59:38.818Z,3.33
